sensor_id;sensor_type;location;lat;lon;timestamp;temperature;humidity
23471;DHT22;11908;50.806;4.424;2023-02-22T00:00:59;6.00;99.90
23471;DHT22;11908;50.806;4.424;2023-02-22T00:03:31;6.10;99.90
23471;DHT22;11908;50.806;4.424;2023-02-22T00:06:00;6.10;99.90
23471;DHT22;11908;50.806;4.424;2023-02-22T00:08:35;6.20;99.90
23471;DHT22;11908;50.806;4.424;2023-02-22T00:11:04;6.20;99.90
23471;DHT22;11908;50.806;4.424;2023-02-22T00:13:33;6.10;99.90
23471;DHT22;11908;50.806;4.424;2023-02-22T00:15:59;6.00;99.90
23471;DHT22;11908;50.806;4.424;2023-02-22T00:18:26;6.00;99.90
23471;DHT22;11908;50.806;4.424;2023-02-22T00:20:56;6.00;99.90
23471;DHT22;11908;50.806;4.424;2023-02-22T00:23:28;6.00;99.90
23471;DHT22;11908;50.806;4.424;2023-02-22T00:25:55;6.00;99.90
23471;DHT22;11908;50.806;4.424;2023-02-22T00:28:21;6.00;99.90
23471;DHT22;11908;50.806;4.424;2023-02-22T00:30:49;6.00;99.90
23471;DHT22;11908;50.806;4.424;2023-02-22T00:33:15;6.10;99.90
23471;DHT22;11908;50.806;4.424;2023-02-22T00:35:41;6.20;99.90
23471;DHT22;11908;50.806;4.424;2023-02-22T00:38:11;6.10;99.90
23471;DHT22;11908;50.806;4.424;2023-02-22T00:40:36;6.10;99.90
23471;DHT22;11908;50.806;4.424;2023-02-22T00:43:03;5.90;99.90
23471;DHT22;11908;50.806;4.424;2023-02-22T00:45:31;5.90;99.90
23471;DHT22;11908;50.806;4.424;2023-02-22T00:47:58;5.80;99.90
23471;DHT22;11908;50.806;4.424;2023-02-22T00:50:25;5.70;99.90
23471;DHT22;11908;50.806;4.424;2023-02-22T00:52:52;5.60;99.90
23471;DHT22;11908;50.806;4.424;2023-02-22T00:55:20;5.60;99.90
23471;DHT22;11908;50.806;4.424;2023-02-22T00:57:47;5.60;99.90
23471;DHT22;11908;50.806;4.424;2023-02-22T01:00:18;5.50;99.90
23471;DHT22;11908;50.806;4.424;2023-02-22T01:02:45;5.50;99.90
23471;DHT22;11908;50.806;4.424;2023-02-22T01:05:17;5.50;99.90
23471;DHT22;11908;50.806;4.424;2023-02-22T01:07:43;5.40;99.90
23471;DHT22;11908;50.806;4.424;2023-02-22T01:10:10;5.40;99.90
23471;DHT22;11908;50.806;4.424;2023-02-22T01:12:36;5.50;99.90
23471;DHT22;11908;50.806;4.424;2023-02-22T01:15:04;5.50;99.90
23471;DHT22;11908;50.806;4.424;2023-02-22T01:17:29;5.40;99.90
23471;DHT22;11908;50.806;4.424;2023-02-22T01:19:55;5.50;99.90
23471;DHT22;11908;50.806;4.424;2023-02-22T01:22:22;5.60;99.90
23471;DHT22;11908;50.806;4.424;2023-02-22T01:24:48;5.70;99.90
23471;DHT22;11908;50.806;4.424;2023-02-22T01:27:14;5.70;99.90
23471;DHT22;11908;50.806;4.424;2023-02-22T01:29:40;5.80;99.90
23471;DHT22;11908;50.806;4.424;2023-02-22T01:32:06;5.80;99.90
23471;DHT22;11908;50.806;4.424;2023-02-22T01:34:32;5.70;99.90
23471;DHT22;11908;50.806;4.424;2023-02-22T01:36:58;5.70;99.90
23471;DHT22;11908;50.806;4.424;2023-02-22T01:39:26;5.80;99.90
23471;DHT22;11908;50.806;4.424;2023-02-22T01:41:52;5.90;99.90
23471;DHT22;11908;50.806;4.424;2023-02-22T01:44:33;5.80;99.90
23471;DHT22;11908;50.806;4.424;2023-02-22T01:47:00;5.70;99.90
23471;DHT22;11908;50.806;4.424;2023-02-22T01:49:46;5.50;99.90
23471;DHT22;11908;50.806;4.424;2023-02-22T01:52:19;5.50;99.90
23471;DHT22;11908;50.806;4.424;2023-02-22T01:54:50;5.50;99.90
23471;DHT22;11908;50.806;4.424;2023-02-22T01:57:32;5.50;99.90
23471;DHT22;11908;50.806;4.424;2023-02-22T02:00:07;5.50;99.90
23471;DHT22;11908;50.806;4.424;2023-02-22T02:02:37;5.50;99.90
23471;DHT22;11908;50.806;4.424;2023-02-22T02:05:06;5.50;99.90
23471;DHT22;11908;50.806;4.424;2023-02-22T02:07:33;5.40;99.90
23471;DHT22;11908;50.806;4.424;2023-02-22T02:10:05;5.40;99.90
23471;DHT22;11908;50.806;4.424;2023-02-22T02:12:34;5.20;99.90
23471;DHT22;11908;50.806;4.424;2023-02-22T02:15:26;5.20;99.90
23471;DHT22;11908;50.806;4.424;2023-02-22T02:17:56;5.30;99.90
23471;DHT22;11908;50.806;4.424;2023-02-22T02:21:04;5.10;99.90
23471;DHT22;11908;50.806;4.424;2023-02-22T02:29:37;5.20;99.90
23471;DHT22;11908;50.806;4.424;2023-02-22T02:32:14;5.20;99.90
23471;DHT22;11908;50.806;4.424;2023-02-22T02:34:53;5.10;99.90
23471;DHT22;11908;50.806;4.424;2023-02-22T02:40:28;4.90;99.90
23471;DHT22;11908;50.806;4.424;2023-02-22T02:43:16;5.00;99.90
23471;DHT22;11908;50.806;4.424;2023-02-22T02:45:51;5.00;99.90
23471;DHT22;11908;50.806;4.424;2023-02-22T02:48:21;5.00;99.90
23471;DHT22;11908;50.806;4.424;2023-02-22T02:50:49;4.90;99.90
23471;DHT22;11908;50.806;4.424;2023-02-22T02:53:24;5.00;99.90
23471;DHT22;11908;50.806;4.424;2023-02-22T02:55:50;4.90;99.90
23471;DHT22;11908;50.806;4.424;2023-02-22T02:58:21;4.90;99.90
23471;DHT22;11908;50.806;4.424;2023-02-22T03:00:57;4.90;99.90
23471;DHT22;11908;50.806;4.424;2023-02-22T03:09:26;4.90;99.90
23471;DHT22;11908;50.806;4.424;2023-02-22T03:12:16;4.80;99.90
23471;DHT22;11908;50.806;4.424;2023-02-22T03:14:51;4.80;99.90
23471;DHT22;11908;50.806;4.424;2023-02-22T03:17:32;4.80;99.90
23471;DHT22;11908;50.806;4.424;2023-02-22T03:20:42;4.70;99.90
23471;DHT22;11908;50.806;4.424;2023-02-22T03:25:50;4.60;99.90
23471;DHT22;11908;50.806;4.424;2023-02-22T03:28:17;4.60;99.90
23471;DHT22;11908;50.806;4.424;2023-02-22T03:30:50;4.60;99.90
23471;DHT22;11908;50.806;4.424;2023-02-22T03:33:25;4.50;99.90
23471;DHT22;11908;50.806;4.424;2023-02-22T03:36:03;4.50;99.90
23471;DHT22;11908;50.806;4.424;2023-02-22T03:38:32;4.40;99.90
23471;DHT22;11908;50.806;4.424;2023-02-22T03:41:01;4.50;99.90
23471;DHT22;11908;50.806;4.424;2023-02-22T03:43:35;4.50;99.90
23471;DHT22;11908;50.806;4.424;2023-02-22T03:46:03;4.50;99.90
23471;DHT22;11908;50.806;4.424;2023-02-22T03:48:45;4.50;99.90
23471;DHT22;11908;50.806;4.424;2023-02-22T03:51:13;4.50;99.90
23471;DHT22;11908;50.806;4.424;2023-02-22T03:53:40;4.60;99.90
23471;DHT22;11908;50.806;4.424;2023-02-22T03:56:08;4.50;99.90
23471;DHT22;11908;50.806;4.424;2023-02-22T03:58:38;4.50;99.90
23471;DHT22;11908;50.806;4.424;2023-02-22T04:01:05;4.50;99.90
23471;DHT22;11908;50.806;4.424;2023-02-22T04:03:30;4.50;99.90
23471;DHT22;11908;50.806;4.424;2023-02-22T04:05:56;4.50;99.90
23471;DHT22;11908;50.806;4.424;2023-02-22T04:08:22;4.60;99.90
23471;DHT22;11908;50.806;4.424;2023-02-22T04:10:48;4.60;99.90
23471;DHT22;11908;50.806;4.424;2023-02-22T04:13:13;4.50;99.90
23471;DHT22;11908;50.806;4.424;2023-02-22T04:15:39;4.50;99.90
23471;DHT22;11908;50.806;4.424;2023-02-22T04:18:05;4.40;99.90
23471;DHT22;11908;50.806;4.424;2023-02-22T04:20:30;4.40;99.90
23471;DHT22;11908;50.806;4.424;2023-02-22T04:22:56;4.40;99.90
23471;DHT22;11908;50.806;4.424;2023-02-22T04:25:23;4.40;99.90
23471;DHT22;11908;50.806;4.424;2023-02-22T04:27:49;4.40;99.90
23471;DHT22;11908;50.806;4.424;2023-02-22T04:30:17;4.40;99.90
23471;DHT22;11908;50.806;4.424;2023-02-22T04:32:43;4.40;99.90
23471;DHT22;11908;50.806;4.424;2023-02-22T04:35:09;4.40;99.90
23471;DHT22;11908;50.806;4.424;2023-02-22T04:37:35;4.40;99.90
23471;DHT22;11908;50.806;4.424;2023-02-22T04:40:02;4.40;99.90
23471;DHT22;11908;50.806;4.424;2023-02-22T04:42:32;4.50;99.90
23471;DHT22;11908;50.806;4.424;2023-02-22T04:44:57;4.50;99.90
23471;DHT22;11908;50.806;4.424;2023-02-22T04:47:23;4.60;99.90
23471;DHT22;11908;50.806;4.424;2023-02-22T04:49:48;4.70;99.90
23471;DHT22;11908;50.806;4.424;2023-02-22T04:52:14;4.70;99.90
23471;DHT22;11908;50.806;4.424;2023-02-22T04:54:40;4.70;99.90
23471;DHT22;11908;50.806;4.424;2023-02-22T04:57:05;4.70;99.90
23471;DHT22;11908;50.806;4.424;2023-02-22T04:59:31;4.80;99.90
23471;DHT22;11908;50.806;4.424;2023-02-22T05:01:57;4.90;99.90
23471;DHT22;11908;50.806;4.424;2023-02-22T05:04:25;5.00;99.90
23471;DHT22;11908;50.806;4.424;2023-02-22T05:06:50;5.00;99.90
23471;DHT22;11908;50.806;4.424;2023-02-22T05:09:16;5.10;99.90
23471;DHT22;11908;50.806;4.424;2023-02-22T05:11:42;5.10;99.90
23471;DHT22;11908;50.806;4.424;2023-02-22T05:14:07;5.00;99.90
23471;DHT22;11908;50.806;4.424;2023-02-22T05:16:33;4.90;99.90
23471;DHT22;11908;50.806;4.424;2023-02-22T05:19:00;4.90;99.90
23471;DHT22;11908;50.806;4.424;2023-02-22T05:21:26;4.90;99.90
23471;DHT22;11908;50.806;4.424;2023-02-22T05:23:51;4.80;99.90
23471;DHT22;11908;50.806;4.424;2023-02-22T05:26:17;4.90;99.90
23471;DHT22;11908;50.806;4.424;2023-02-22T05:28:43;5.00;99.90
23471;DHT22;11908;50.806;4.424;2023-02-22T05:31:09;5.00;99.90
23471;DHT22;11908;50.806;4.424;2023-02-22T05:33:34;5.00;99.90
23471;DHT22;11908;50.806;4.424;2023-02-22T05:36:00;5.00;99.90
23471;DHT22;11908;50.806;4.424;2023-02-22T05:38:26;5.00;99.90
23471;DHT22;11908;50.806;4.424;2023-02-22T05:40:52;5.10;99.90
23471;DHT22;11908;50.806;4.424;2023-02-22T05:43:17;5.10;99.90
23471;DHT22;11908;50.806;4.424;2023-02-22T05:45:43;5.10;99.90
23471;DHT22;11908;50.806;4.424;2023-02-22T05:48:09;5.10;99.90
23471;DHT22;11908;50.806;4.424;2023-02-22T05:50:34;5.10;99.90
23471;DHT22;11908;50.806;4.424;2023-02-22T05:53:00;5.10;99.90
23471;DHT22;11908;50.806;4.424;2023-02-22T05:55:26;5.10;99.90
23471;DHT22;11908;50.806;4.424;2023-02-22T05:57:52;5.00;99.90
23471;DHT22;11908;50.806;4.424;2023-02-22T06:00:24;5.00;99.90
23471;DHT22;11908;50.806;4.424;2023-02-22T06:02:59;5.10;99.90
23471;DHT22;11908;50.806;4.424;2023-02-22T06:05:26;5.00;99.90
23471;DHT22;11908;50.806;4.424;2023-02-22T06:07:51;5.10;99.90
23471;DHT22;11908;50.806;4.424;2023-02-22T06:10:18;5.10;99.90
23471;DHT22;11908;50.806;4.424;2023-02-22T06:12:45;5.10;99.90
23471;DHT22;11908;50.806;4.424;2023-02-22T06:15:11;5.10;99.90
23471;DHT22;11908;50.806;4.424;2023-02-22T06:17:36;5.10;99.90
23471;DHT22;11908;50.806;4.424;2023-02-22T06:20:04;5.10;99.90
23471;DHT22;11908;50.806;4.424;2023-02-22T06:22:29;5.10;99.90
23471;DHT22;11908;50.806;4.424;2023-02-22T06:24:55;5.10;99.90
23471;DHT22;11908;50.806;4.424;2023-02-22T06:27:21;5.10;99.90
23471;DHT22;11908;50.806;4.424;2023-02-22T06:29:46;5.10;99.90
23471;DHT22;11908;50.806;4.424;2023-02-22T06:32:13;5.00;99.90
23471;DHT22;11908;50.806;4.424;2023-02-22T06:34:38;5.00;99.90
23471;DHT22;11908;50.806;4.424;2023-02-22T06:37:06;5.10;99.90
23471;DHT22;11908;50.806;4.424;2023-02-22T06:39:32;5.10;99.90
23471;DHT22;11908;50.806;4.424;2023-02-22T06:41:58;5.00;99.90
23471;DHT22;11908;50.806;4.424;2023-02-22T06:44:24;4.90;99.90
23471;DHT22;11908;50.806;4.424;2023-02-22T06:46:50;4.90;99.90
23471;DHT22;11908;50.806;4.424;2023-02-22T06:49:17;5.00;99.90
23471;DHT22;11908;50.806;4.424;2023-02-22T06:51:42;5.00;99.90
23471;DHT22;11908;50.806;4.424;2023-02-22T06:54:08;4.90;99.90
23471;DHT22;11908;50.806;4.424;2023-02-22T06:56:34;4.90;99.90
23471;DHT22;11908;50.806;4.424;2023-02-22T06:59:00;4.90;99.90
23471;DHT22;11908;50.806;4.424;2023-02-22T07:01:28;4.90;99.90
23471;DHT22;11908;50.806;4.424;2023-02-22T07:03:54;4.80;99.90
23471;DHT22;11908;50.806;4.424;2023-02-22T07:06:20;4.80;99.90
23471;DHT22;11908;50.806;4.424;2023-02-22T07:08:46;5.00;99.90
23471;DHT22;11908;50.806;4.424;2023-02-22T07:11:12;5.20;99.90
23471;DHT22;11908;50.806;4.424;2023-02-22T07:13:38;5.30;99.90
23471;DHT22;11908;50.806;4.424;2023-02-22T07:16:04;5.40;99.90
23471;DHT22;11908;50.806;4.424;2023-02-22T07:18:30;5.30;99.90
23471;DHT22;11908;50.806;4.424;2023-02-22T07:20:55;5.30;99.90
23471;DHT22;11908;50.806;4.424;2023-02-22T07:23:23;5.30;99.90
23471;DHT22;11908;50.806;4.424;2023-02-22T07:25:49;5.40;99.90
23471;DHT22;11908;50.806;4.424;2023-02-22T07:28:14;5.40;99.90
23471;DHT22;11908;50.806;4.424;2023-02-22T07:30:40;5.50;99.90
23471;DHT22;11908;50.806;4.424;2023-02-22T07:33:08;5.60;99.90
23471;DHT22;11908;50.806;4.424;2023-02-22T07:35:36;5.60;99.90
23471;DHT22;11908;50.806;4.424;2023-02-22T07:38:07;5.70;99.90
23471;DHT22;11908;50.806;4.424;2023-02-22T07:40:35;5.90;99.90
23471;DHT22;11908;50.806;4.424;2023-02-22T07:45:29;6.20;99.90
23471;DHT22;11908;50.806;4.424;2023-02-22T07:47:56;6.40;99.90
23471;DHT22;11908;50.806;4.424;2023-02-22T07:50:23;6.60;99.90
23471;DHT22;11908;50.806;4.424;2023-02-22T07:52:51;6.80;99.90
23471;DHT22;11908;50.806;4.424;2023-02-22T07:55:19;7.00;99.90
23471;DHT22;11908;50.806;4.424;2023-02-22T07:57:47;6.90;99.90
23471;DHT22;11908;50.806;4.424;2023-02-22T08:00:14;6.90;99.90
23471;DHT22;11908;50.806;4.424;2023-02-22T08:02:41;7.00;99.90
23471;DHT22;11908;50.806;4.424;2023-02-22T08:05:08;7.00;99.90
23471;DHT22;11908;50.806;4.424;2023-02-22T08:07:35;7.20;99.90
23471;DHT22;11908;50.806;4.424;2023-02-22T08:10:01;7.30;99.90
23471;DHT22;11908;50.806;4.424;2023-02-22T08:12:31;7.50;99.90
23471;DHT22;11908;50.806;4.424;2023-02-22T08:14:57;7.70;99.90
23471;DHT22;11908;50.806;4.424;2023-02-22T08:17:23;7.90;99.90
23471;DHT22;11908;50.806;4.424;2023-02-22T08:19:48;8.00;99.90
23471;DHT22;11908;50.806;4.424;2023-02-22T08:22:14;8.10;99.90
23471;DHT22;11908;50.806;4.424;2023-02-22T08:24:40;8.10;99.90
23471;DHT22;11908;50.806;4.424;2023-02-22T08:27:06;8.20;99.90
23471;DHT22;11908;50.806;4.424;2023-02-22T08:29:32;8.30;99.90
23471;DHT22;11908;50.806;4.424;2023-02-22T08:31:59;8.40;99.90
23471;DHT22;11908;50.806;4.424;2023-02-22T08:34:25;8.60;99.90
23471;DHT22;11908;50.806;4.424;2023-02-22T08:36:51;8.80;99.90
23471;DHT22;11908;50.806;4.424;2023-02-22T08:39:17;8.80;99.90
23471;DHT22;11908;50.806;4.424;2023-02-22T08:41:42;8.90;99.90
23471;DHT22;11908;50.806;4.424;2023-02-22T08:44:08;9.10;99.90
23471;DHT22;11908;50.806;4.424;2023-02-22T08:46:34;9.30;99.90
23471;DHT22;11908;50.806;4.424;2023-02-22T08:49:00;9.50;99.90
23471;DHT22;11908;50.806;4.424;2023-02-22T08:51:26;9.50;99.90
23471;DHT22;11908;50.806;4.424;2023-02-22T08:53:52;9.70;99.90
23471;DHT22;11908;50.806;4.424;2023-02-22T08:56:18;10.00;99.90
23471;DHT22;11908;50.806;4.424;2023-02-22T08:58:43;10.00;99.90
23471;DHT22;11908;50.806;4.424;2023-02-22T09:01:09;10.20;99.90
23471;DHT22;11908;50.806;4.424;2023-02-22T09:03:35;10.20;99.90
23471;DHT22;11908;50.806;4.424;2023-02-22T09:06:00;10.10;99.90
23471;DHT22;11908;50.806;4.424;2023-02-22T09:08:26;10.10;99.90
23471;DHT22;11908;50.806;4.424;2023-02-22T09:10:52;10.20;99.90
23471;DHT22;11908;50.806;4.424;2023-02-22T09:13:18;10.20;99.90
23471;DHT22;11908;50.806;4.424;2023-02-22T09:15:43;10.10;99.90
23471;DHT22;11908;50.806;4.424;2023-02-22T09:18:15;10.10;99.90
23471;DHT22;11908;50.806;4.424;2023-02-22T09:20:42;10.00;99.90
23471;DHT22;11908;50.806;4.424;2023-02-22T09:23:08;9.80;99.90
23471;DHT22;11908;50.806;4.424;2023-02-22T09:25:34;9.80;99.90
23471;DHT22;11908;50.806;4.424;2023-02-22T09:28:00;9.70;99.90
23471;DHT22;11908;50.806;4.424;2023-02-22T09:30:34;9.70;99.90
23471;DHT22;11908;50.806;4.424;2023-02-22T09:33:02;9.70;99.90
23471;DHT22;11908;50.806;4.424;2023-02-22T09:35:29;9.70;99.90
23471;DHT22;11908;50.806;4.424;2023-02-22T09:37:58;9.70;99.90
23471;DHT22;11908;50.806;4.424;2023-02-22T09:40:30;9.70;99.90
23471;DHT22;11908;50.806;4.424;2023-02-22T09:51:32;9.70;99.90
23471;DHT22;11908;50.806;4.424;2023-02-22T09:54:03;9.90;99.90
23471;DHT22;11908;50.806;4.424;2023-02-22T09:56:32;10.00;99.90
23471;DHT22;11908;50.806;4.424;2023-02-22T09:59:02;10.00;99.90
23471;DHT22;11908;50.806;4.424;2023-02-22T10:01:32;10.10;99.90
23471;DHT22;11908;50.806;4.424;2023-02-22T10:09:36;10.30;99.90
23471;DHT22;11908;50.806;4.424;2023-02-22T10:14:56;10.30;99.90
23471;DHT22;11908;50.806;4.424;2023-02-22T10:17:35;10.40;99.90
23471;DHT22;11908;50.806;4.424;2023-02-22T10:20:03;10.50;99.90
23471;DHT22;11908;50.806;4.424;2023-02-22T10:25:22;11.00;99.90
23471;DHT22;11908;50.806;4.424;2023-02-22T10:27:56;11.10;99.90
23471;DHT22;11908;50.806;4.424;2023-02-22T10:30:30;11.20;99.90
23471;DHT22;11908;50.806;4.424;2023-02-22T10:33:09;11.40;99.90
23471;DHT22;11908;50.806;4.424;2023-02-22T10:35:38;11.70;99.90
23471;DHT22;11908;50.806;4.424;2023-02-22T10:40:54;12.10;99.90
23471;DHT22;11908;50.806;4.424;2023-02-22T10:43:21;12.40;99.90
23471;DHT22;11908;50.806;4.424;2023-02-22T10:45:50;12.50;99.90
23471;DHT22;11908;50.806;4.424;2023-02-22T10:48:18;12.50;99.90
23471;DHT22;11908;50.806;4.424;2023-02-22T10:50:46;12.60;99.90
23471;DHT22;11908;50.806;4.424;2023-02-22T10:53:13;12.70;99.90
23471;DHT22;11908;50.806;4.424;2023-02-22T11:04:11;12.80;99.90
23471;DHT22;11908;50.806;4.424;2023-02-22T11:06:39;12.70;99.90
23471;DHT22;11908;50.806;4.424;2023-02-22T11:09:09;12.80;99.90
23471;DHT22;11908;50.806;4.424;2023-02-22T11:11:36;12.90;99.90
23471;DHT22;11908;50.806;4.424;2023-02-22T11:14:03;12.90;99.90
23471;DHT22;11908;50.806;4.424;2023-02-22T11:16:40;13.20;99.90
23471;DHT22;11908;50.806;4.424;2023-02-22T11:19:19;13.40;99.90
23471;DHT22;11908;50.806;4.424;2023-02-22T11:21:55;13.50;99.90
23471;DHT22;11908;50.806;4.424;2023-02-22T11:24:22;13.20;99.90
23471;DHT22;11908;50.806;4.424;2023-02-22T11:26:52;12.70;99.90
23471;DHT22;11908;50.806;4.424;2023-02-22T11:29:34;12.50;99.90
23471;DHT22;11908;50.806;4.424;2023-02-22T11:32:11;12.10;99.90
23471;DHT22;11908;50.806;4.424;2023-02-22T11:34:40;11.90;99.90
23471;DHT22;11908;50.806;4.424;2023-02-22T11:39:48;11.80;99.90
23471;DHT22;11908;50.806;4.424;2023-02-22T11:42:28;11.90;99.90
23471;DHT22;11908;50.806;4.424;2023-02-22T11:45:16;12.00;99.90
23471;DHT22;11908;50.806;4.424;2023-02-22T11:50:30;12.40;99.90
23471;DHT22;11908;50.806;4.424;2023-02-22T12:10:18;13.10;99.90
23471;DHT22;11908;50.806;4.424;2023-02-22T12:21:19;13.10;99.90
23471;DHT22;11908;50.806;4.424;2023-02-22T12:23:54;13.10;99.90
23471;DHT22;11908;50.806;4.424;2023-02-22T12:26:29;13.10;99.90
23471;DHT22;11908;50.806;4.424;2023-02-22T12:29:17;13.10;99.90
23471;DHT22;11908;50.806;4.424;2023-02-22T12:34:29;13.00;99.90
23471;DHT22;11908;50.806;4.424;2023-02-22T12:40:01;12.90;99.90
23471;DHT22;11908;50.806;4.424;2023-02-22T12:45:33;13.10;99.90
23471;DHT22;11908;50.806;4.424;2023-02-22T12:51:00;12.70;99.90
23471;DHT22;11908;50.806;4.424;2023-02-22T12:53:34;12.80;99.90
23471;DHT22;11908;50.806;4.424;2023-02-22T13:01:35;12.80;99.90
23471;DHT22;11908;50.806;4.424;2023-02-22T13:04:01;12.90;99.90
23471;DHT22;11908;50.806;4.424;2023-02-22T13:09:36;13.10;99.90
23471;DHT22;11908;50.806;4.424;2023-02-22T13:15:12;13.00;99.90
23471;DHT22;11908;50.806;4.424;2023-02-22T13:17:54;12.90;99.90
23471;DHT22;11908;50.806;4.424;2023-02-22T13:23:12;12.70;99.90
23471;DHT22;11908;50.806;4.424;2023-02-22T13:26:00;12.50;99.90
23471;DHT22;11908;50.806;4.424;2023-02-22T13:28:40;12.40;99.90
23471;DHT22;11908;50.806;4.424;2023-02-22T13:31:22;12.50;99.90
23471;DHT22;11908;50.806;4.424;2023-02-22T13:34:45;12.60;99.90
23471;DHT22;11908;50.806;4.424;2023-02-22T13:53:28;11.80;99.90
23471;DHT22;11908;50.806;4.424;2023-02-22T13:55:59;11.80;99.90
23471;DHT22;11908;50.806;4.424;2023-02-22T13:58:25;12.00;99.90
23471;DHT22;11908;50.806;4.424;2023-02-22T14:00:57;12.10;99.90
23471;DHT22;11908;50.806;4.424;2023-02-22T14:03:33;12.20;99.90
23471;DHT22;11908;50.806;4.424;2023-02-22T14:06:10;12.30;99.90
23471;DHT22;11908;50.806;4.424;2023-02-22T14:08:55;12.40;99.90
23471;DHT22;11908;50.806;4.424;2023-02-22T14:16:25;11.70;99.90
23471;DHT22;11908;50.806;4.424;2023-02-22T14:19:19;11.50;99.90
23471;DHT22;11908;50.806;4.424;2023-02-22T14:22:02;11.30;99.90
23471;DHT22;11908;50.806;4.424;2023-02-22T14:24:48;11.20;99.90
23471;DHT22;11908;50.806;4.424;2023-02-22T14:27:15;11.30;99.90
23471;DHT22;11908;50.806;4.424;2023-02-22T14:29:53;11.40;99.90
23471;DHT22;11908;50.806;4.424;2023-02-22T14:32:19;11.30;99.90
23471;DHT22;11908;50.806;4.424;2023-02-22T14:35:02;11.10;99.90
23471;DHT22;11908;50.806;4.424;2023-02-22T14:37:29;11.00;99.90
23471;DHT22;11908;50.806;4.424;2023-02-22T14:40:18;11.10;99.90
23471;DHT22;11908;50.806;4.424;2023-02-22T14:42:48;11.10;99.90
23471;DHT22;11908;50.806;4.424;2023-02-22T14:47:55;11.20;99.90
23471;DHT22;11908;50.806;4.424;2023-02-22T14:55:43;11.20;99.90
23471;DHT22;11908;50.806;4.424;2023-02-22T15:00:53;11.20;99.90
23471;DHT22;11908;50.806;4.424;2023-02-22T15:05:47;11.20;99.90
23471;DHT22;11908;50.806;4.424;2023-02-22T15:08:16;11.20;99.90
23471;DHT22;11908;50.806;4.424;2023-02-22T15:10:44;11.20;99.90
23471;DHT22;11908;50.806;4.424;2023-02-22T15:13:25;11.20;99.90
23471;DHT22;11908;50.806;4.424;2023-02-22T15:18:31;11.30;99.90
23471;DHT22;11908;50.806;4.424;2023-02-22T15:21:05;11.20;99.90
23471;DHT22;11908;50.806;4.424;2023-02-22T15:26:06;10.90;99.90
23471;DHT22;11908;50.806;4.424;2023-02-22T15:28:33;10.80;99.90
23471;DHT22;11908;50.806;4.424;2023-02-22T15:31:15;10.80;99.90
23471;DHT22;11908;50.806;4.424;2023-02-22T15:33:40;10.70;99.90
23471;DHT22;11908;50.806;4.424;2023-02-22T15:36:13;10.70;99.90
23471;DHT22;11908;50.806;4.424;2023-02-22T15:38:46;10.70;99.90
23471;DHT22;11908;50.806;4.424;2023-02-22T15:41:25;10.60;99.90
23471;DHT22;11908;50.806;4.424;2023-02-22T15:44:03;10.50;99.90
23471;DHT22;11908;50.806;4.424;2023-02-22T15:46:30;10.50;99.90
23471;DHT22;11908;50.806;4.424;2023-02-22T15:51:40;10.60;99.90
23471;DHT22;11908;50.806;4.424;2023-02-22T15:54:07;10.60;99.90
23471;DHT22;11908;50.806;4.424;2023-02-22T15:56:47;10.40;99.90
23471;DHT22;11908;50.806;4.424;2023-02-22T15:59:16;10.40;99.90
23471;DHT22;11908;50.806;4.424;2023-02-22T16:01:45;10.30;99.90
23471;DHT22;11908;50.806;4.424;2023-02-22T16:04:27;10.20;99.90
23471;DHT22;11908;50.806;4.424;2023-02-22T16:07:08;10.20;99.90
23471;DHT22;11908;50.806;4.424;2023-02-22T16:09:46;10.10;99.90
23471;DHT22;11908;50.806;4.424;2023-02-22T16:14:44;10.10;99.90
23471;DHT22;11908;50.806;4.424;2023-02-22T16:17:36;10.20;99.90
23471;DHT22;11908;50.806;4.424;2023-02-22T16:22:39;10.30;99.90
23471;DHT22;11908;50.806;4.424;2023-02-22T16:32:43;10.10;99.90
23471;DHT22;11908;50.806;4.424;2023-02-22T16:35:09;10.10;99.90
23471;DHT22;11908;50.806;4.424;2023-02-22T16:38:04;10.10;99.90
23471;DHT22;11908;50.806;4.424;2023-02-22T16:43:03;10.00;99.90
23471;DHT22;11908;50.806;4.424;2023-02-22T16:45:30;10.10;99.90
23471;DHT22;11908;50.806;4.424;2023-02-22T16:47:56;10.10;99.90
23471;DHT22;11908;50.806;4.424;2023-02-22T16:50:22;10.00;99.90
23471;DHT22;11908;50.806;4.424;2023-02-22T16:52:51;9.90;99.90
23471;DHT22;11908;50.806;4.424;2023-02-22T16:55:18;10.00;99.90
23471;DHT22;11908;50.806;4.424;2023-02-22T16:57:45;9.90;99.90
23471;DHT22;11908;50.806;4.424;2023-02-22T17:00:20;9.90;99.90
23471;DHT22;11908;50.806;4.424;2023-02-22T17:03:04;10.00;99.90
23471;DHT22;11908;50.806;4.424;2023-02-22T17:05:31;10.00;99.90
23471;DHT22;11908;50.806;4.424;2023-02-22T17:08:05;10.10;99.90
23471;DHT22;11908;50.806;4.424;2023-02-22T17:10:31;10.10;99.90
23471;DHT22;11908;50.806;4.424;2023-02-22T17:12:57;10.10;99.90
23471;DHT22;11908;50.806;4.424;2023-02-22T17:15:29;10.10;99.90
23471;DHT22;11908;50.806;4.424;2023-02-22T17:17:57;10.00;99.90
23471;DHT22;11908;50.806;4.424;2023-02-22T17:20:23;9.90;99.90
23471;DHT22;11908;50.806;4.424;2023-02-22T17:23:00;9.90;99.90
23471;DHT22;11908;50.806;4.424;2023-02-22T17:25:30;9.70;99.90
23471;DHT22;11908;50.806;4.424;2023-02-22T17:27:56;9.80;99.90
23471;DHT22;11908;50.806;4.424;2023-02-22T17:30:22;9.80;99.90
23471;DHT22;11908;50.806;4.424;2023-02-22T17:32:49;9.90;99.90
23471;DHT22;11908;50.806;4.424;2023-02-22T17:35:17;10.00;99.90
23471;DHT22;11908;50.806;4.424;2023-02-22T17:37:51;9.90;99.90
23471;DHT22;11908;50.806;4.424;2023-02-22T17:40:16;10.00;99.90
23471;DHT22;11908;50.806;4.424;2023-02-22T17:42:43;10.00;99.90
23471;DHT22;11908;50.806;4.424;2023-02-22T17:45:10;10.00;99.90
23471;DHT22;11908;50.806;4.424;2023-02-22T17:47:39;10.10;99.90
23471;DHT22;11908;50.806;4.424;2023-02-22T17:50:07;10.00;99.90
23471;DHT22;11908;50.806;4.424;2023-02-22T17:52:32;10.00;99.90
23471;DHT22;11908;50.806;4.424;2023-02-22T17:54:58;10.00;99.90
23471;DHT22;11908;50.806;4.424;2023-02-22T17:57:24;10.00;99.90
23471;DHT22;11908;50.806;4.424;2023-02-22T17:59:49;9.90;99.90
23471;DHT22;11908;50.806;4.424;2023-02-22T18:02:15;9.90;99.90
23471;DHT22;11908;50.806;4.424;2023-02-22T18:04:41;9.90;99.90
23471;DHT22;11908;50.806;4.424;2023-02-22T18:07:07;9.80;99.90
23471;DHT22;11908;50.806;4.424;2023-02-22T18:09:32;9.80;99.90
23471;DHT22;11908;50.806;4.424;2023-02-22T18:12:00;9.80;99.90
23471;DHT22;11908;50.806;4.424;2023-02-22T18:14:25;9.80;99.90
23471;DHT22;11908;50.806;4.424;2023-02-22T18:16:51;9.90;99.90
23471;DHT22;11908;50.806;4.424;2023-02-22T18:19:17;9.90;99.90
23471;DHT22;11908;50.806;4.424;2023-02-22T18:21:44;9.90;99.90
23471;DHT22;11908;50.806;4.424;2023-02-22T18:24:10;9.80;99.90
23471;DHT22;11908;50.806;4.424;2023-02-22T18:26:36;9.80;99.90
23471;DHT22;11908;50.806;4.424;2023-02-22T18:29:04;9.90;99.90
23471;DHT22;11908;50.806;4.424;2023-02-22T18:31:30;10.00;99.90
23471;DHT22;11908;50.806;4.424;2023-02-22T18:33:56;9.90;99.90
23471;DHT22;11908;50.806;4.424;2023-02-22T18:36:22;9.90;99.90
23471;DHT22;11908;50.806;4.424;2023-02-22T18:38:50;10.00;99.90
23471;DHT22;11908;50.806;4.424;2023-02-22T18:41:17;10.00;99.90